Coal Creek, Colorado
Current Conditions -  °F | °C
As of 3:55 AM on Thursday 27 Nov 2014 (Local Time) from K1V6 Reporting Station
Clear Clear  
Wind Chill: 38°   Ceiling: Unl
Heat Index: 45°   Visibility: 10mi
Dew Point: 23°   Wind: 13mph
Humidity: 43%   Direction: 290°WNW
Pressure: 30.3"   Gusts: NA
Location:  38.36°N, 105.15°W
Report Text: K1V6 271055Z AUTO 29011KT 10SM CLR 07/M05 A3030 RMK AO2
Loading
Personal Weather Stations






























Interactive Weather Map New forecast layout! Learn more

10-Day Weather Forecast

Advertisements
Track Severe Weather on mobile